sensor_id;sensor_type;location;lat;lon;timestamp;pressure;altitude;pressure_sealevel;temperature
25514;BMP180;48128;54.242;10.280;2023-07-28T01:42:02;99767.00;;;14.70
25514;BMP180;48128;54.242;10.280;2023-07-28T01:44:38;99766.00;;;14.70
25514;BMP180;48128;54.242;10.280;2023-07-28T01:50:50;99763.00;;;14.70
25514;BMP180;48128;54.242;10.280;2023-07-28T01:53:26;99756.00;;;14.70
25514;BMP180;48128;54.242;10.280;2023-07-28T01:55:53;99767.00;;;14.70
25514;BMP180;48128;54.242;10.280;2023-07-28T01:58:48;99769.00;;;14.70
25514;BMP180;48128;54.242;10.280;2023-07-28T02:01:18;99770.00;;;14.70
25514;BMP180;48128;54.242;10.280;2023-07-28T02:03:57;99761.00;;;14.70
25514;BMP180;48128;54.242;10.280;2023-07-28T02:10:33;99762.00;;;14.70
25514;BMP180;48128;54.242;10.280;2023-07-28T02:28:01;99765.00;;;14.70
25514;BMP180;48128;54.242;10.280;2023-07-28T02:30:28;99763.00;;;14.70
25514;BMP180;48128;54.242;10.280;2023-07-28T02:32:55;99764.00;;;14.70
25514;BMP180;48128;54.242;10.280;2023-07-28T02:35:22;99766.00;;;14.70
25514;BMP180;48128;54.242;10.280;2023-07-28T02:37:49;99770.00;;;14.70
25514;BMP180;48128;54.242;10.280;2023-07-28T02:40:16;99771.00;;;14.70
25514;BMP180;48128;54.242;10.280;2023-07-28T02:42:43;99775.00;;;14.70
25514;BMP180;48128;54.242;10.280;2023-07-28T02:45:17;99771.00;;;14.70
25514;BMP180;48128;54.242;10.280;2023-07-28T02:47:44;99776.00;;;14.70
25514;BMP180;48128;54.242;10.280;2023-07-28T02:50:11;99777.00;;;14.60
25514;BMP180;48128;54.242;10.280;2023-07-28T02:52:41;99784.00;;;14.60
25514;BMP180;48128;54.242;10.280;2023-07-28T03:10:16;99788.00;;;14.60
25514;BMP180;48128;54.242;10.280;2023-07-28T03:23:46;99789.00;;;14.50
25514;BMP180;48128;54.242;10.280;2023-07-28T03:26:13;99775.00;;;14.40
25514;BMP180;48128;54.242;10.280;2023-07-28T03:36:05;99773.00;;;14.30
25514;BMP180;48128;54.242;10.280;2023-07-28T03:38:35;99786.00;;;14.30
25514;BMP180;48128;54.242;10.280;2023-07-28T03:41:33;99786.00;;;14.30
25514;BMP180;48128;54.242;10.280;2023-07-28T03:44:03;99783.00;;;14.30
25514;BMP180;48128;54.242;10.280;2023-07-28T03:46:30;99775.00;;;14.30
25514;BMP180;48128;54.242;10.280;2023-07-28T03:48:57;99776.00;;;14.30
25514;BMP180;48128;54.242;10.280;2023-07-28T03:51:37;99783.00;;;14.30
25514;BMP180;48128;54.242;10.280;2023-07-28T03:54:16;99784.00;;;14.30
25514;BMP180;48128;54.242;10.280;2023-07-28T03:56:58;99776.00;;;14.30
25514;BMP180;48128;54.242;10.280;2023-07-28T03:59:47;99777.00;;;14.30
25514;BMP180;48128;54.242;10.280;2023-07-28T04:05:30;99795.00;;;14.40
25514;BMP180;48128;54.242;10.280;2023-07-28T04:08:19;99799.00;;;14.40
25514;BMP180;48128;54.242;10.280;2023-07-28T04:10:46;99802.00;;;14.40
25514;BMP180;48128;54.242;10.280;2023-07-28T04:13:12;99792.00;;;14.40
25514;BMP180;48128;54.242;10.280;2023-07-28T04:19:23;99801.00;;;14.50
25514;BMP180;48128;54.242;10.280;2023-07-28T04:29:52;99808.00;;;14.60
25514;BMP180;48128;54.242;10.280;2023-07-28T04:32:41;99804.00;;;14.70
25514;BMP180;48128;54.242;10.280;2023-07-28T04:35:23;99797.00;;;14.70
25514;BMP180;48128;54.242;10.280;2023-07-28T05:00:15;99835.00;;;15.10
25514;BMP180;48128;54.242;10.280;2023-07-28T05:32:13;99829.00;;;15.60
25514;BMP180;48128;54.242;10.280;2023-07-28T05:34:43;99828.00;;;15.70
25514;BMP180;48128;54.242;10.280;2023-07-28T05:37:11;99840.00;;;15.70
25514;BMP180;48128;54.242;10.280;2023-07-28T05:39:38;99840.00;;;15.80
25514;BMP180;48128;54.242;10.280;2023-07-28T05:42:05;99837.00;;;15.80
25514;BMP180;48128;54.242;10.280;2023-07-28T05:44:32;99846.00;;;15.80
25514;BMP180;48128;54.242;10.280;2023-07-28T05:46:59;99850.00;;;15.80
25514;BMP180;48128;54.242;10.280;2023-07-28T05:49:26;99854.00;;;15.90
25514;BMP180;48128;54.242;10.280;2023-07-28T05:51:52;99865.00;;;15.90
25514;BMP180;48128;54.242;10.280;2023-07-28T05:54:19;99871.00;;;16.00
25514;BMP180;48128;54.242;10.280;2023-07-28T05:56:46;99872.00;;;16.10
25514;BMP180;48128;54.242;10.280;2023-07-28T05:59:13;99868.00;;;16.10
25514;BMP180;48128;54.242;10.280;2023-07-28T06:01:40;99868.00;;;16.10
25514;BMP180;48128;54.242;10.280;2023-07-28T06:04:07;99876.00;;;16.20
25514;BMP180;48128;54.242;10.280;2023-07-28T06:06:33;99875.00;;;16.20
25514;BMP180;48128;54.242;10.280;2023-07-28T06:09:00;99875.00;;;16.30
25514;BMP180;48128;54.242;10.280;2023-07-28T06:11:27;99874.00;;;16.20
25514;BMP180;48128;54.242;10.280;2023-07-28T06:13:54;99877.00;;;16.20
25514;BMP180;48128;54.242;10.280;2023-07-28T06:16:21;99882.00;;;16.20
25514;BMP180;48128;54.242;10.280;2023-07-28T06:18:48;99884.00;;;16.20
25514;BMP180;48128;54.242;10.280;2023-07-28T06:21:15;99883.00;;;16.10
25514;BMP180;48128;54.242;10.280;2023-07-28T06:23:42;99884.00;;;16.10
25514;BMP180;48128;54.242;10.280;2023-07-28T06:26:09;99895.00;;;16.20
25514;BMP180;48128;54.242;10.280;2023-07-28T06:28:36;99891.00;;;16.20
25514;BMP180;48128;54.242;10.280;2023-07-28T06:31:05;99898.00;;;16.30
25514;BMP180;48128;54.242;10.280;2023-07-28T06:33:32;99903.00;;;16.30
25514;BMP180;48128;54.242;10.280;2023-07-28T06:35:59;99896.00;;;16.40
25514;BMP180;48128;54.242;10.280;2023-07-28T06:38:26;99904.00;;;16.60
25514;BMP180;48128;54.242;10.280;2023-07-28T06:40:53;99902.00;;;16.70
25514;BMP180;48128;54.242;10.280;2023-07-28T06:43:22;99903.00;;;16.70
25514;BMP180;48128;54.242;10.280;2023-07-28T06:45:52;99916.00;;;16.70
25514;BMP180;48128;54.242;10.280;2023-07-28T06:48:19;99904.00;;;16.80
25514;BMP180;48128;54.242;10.280;2023-07-28T06:50:46;99892.00;;;16.80
25514;BMP180;48128;54.242;10.280;2023-07-28T06:53:13;99894.00;;;16.80
25514;BMP180;48128;54.242;10.280;2023-07-28T06:55:43;99889.00;;;16.70
25514;BMP180;48128;54.242;10.280;2023-07-28T06:58:10;99894.00;;;16.70
25514;BMP180;48128;54.242;10.280;2023-07-28T07:00:37;99897.00;;;16.70
25514;BMP180;48128;54.242;10.280;2023-07-28T07:03:04;99895.00;;;16.70
25514;BMP180;48128;54.242;10.280;2023-07-28T07:05:31;99892.00;;;16.70
25514;BMP180;48128;54.242;10.280;2023-07-28T07:07:58;99903.00;;;16.70
25514;BMP180;48128;54.242;10.280;2023-07-28T07:10:25;99899.00;;;16.70
25514;BMP180;48128;54.242;10.280;2023-07-28T07:12:52;99909.00;;;16.80
25514;BMP180;48128;54.242;10.280;2023-07-28T07:15:19;99906.00;;;16.80
25514;BMP180;48128;54.242;10.280;2023-07-28T07:17:46;99916.00;;;16.90
25514;BMP180;48128;54.242;10.280;2023-07-28T07:20:13;99915.00;;;16.90
25514;BMP180;48128;54.242;10.280;2023-07-28T07:22:40;99923.00;;;17.00
25514;BMP180;48128;54.242;10.280;2023-07-28T07:25:07;99913.00;;;17.10
25514;BMP180;48128;54.242;10.280;2023-07-28T07:27:34;99923.00;;;17.20
25514;BMP180;48128;54.242;10.280;2023-07-28T07:30:01;99938.00;;;17.20
25514;BMP180;48128;54.242;10.280;2023-07-28T07:32:28;99937.00;;;17.30
25514;BMP180;48128;54.242;10.280;2023-07-28T07:35:13;99932.00;;;17.30
25514;BMP180;48128;54.242;10.280;2023-07-28T07:37:43;99931.00;;;17.40
25514;BMP180;48128;54.242;10.280;2023-07-28T07:40:30;99943.00;;;17.40
25514;BMP180;48128;54.242;10.280;2023-07-28T07:42:57;99938.00;;;17.40
25514;BMP180;48128;54.242;10.280;2023-07-28T07:45:24;99949.00;;;17.50
25514;BMP180;48128;54.242;10.280;2023-07-28T07:47:54;99953.00;;;17.60
25514;BMP180;48128;54.242;10.280;2023-07-28T07:50:21;99951.00;;;17.80
25514;BMP180;48128;54.242;10.280;2023-07-28T07:52:48;99960.00;;;17.90
25514;BMP180;48128;54.242;10.280;2023-07-28T07:55:16;99968.00;;;18.00
25514;BMP180;48128;54.242;10.280;2023-07-28T07:57:44;99977.00;;;17.90
25514;BMP180;48128;54.242;10.280;2023-07-28T08:00:11;99972.00;;;17.90
25514;BMP180;48128;54.242;10.280;2023-07-28T08:02:43;99980.00;;;18.00
25514;BMP180;48128;54.242;10.280;2023-07-28T08:05:23;99976.00;;;17.90
25514;BMP180;48128;54.242;10.280;2023-07-28T08:10:41;99984.00;;;18.10
25514;BMP180;48128;54.242;10.280;2023-07-28T08:13:16;99986.00;;;18.20
25514;BMP180;48128;54.242;10.280;2023-07-28T08:16:07;99990.00;;;18.50
25514;BMP180;48128;54.242;10.280;2023-07-28T08:19:02;99994.00;;;18.70
25514;BMP180;48128;54.242;10.280;2023-07-28T08:21:29;99999.00;;;18.80
25514;BMP180;48128;54.242;10.280;2023-07-28T08:24:04;99987.00;;;18.80
25514;BMP180;48128;54.242;10.280;2023-07-28T08:26:36;99984.00;;;19.00
25514;BMP180;48128;54.242;10.280;2023-07-28T08:29:07;99993.00;;;19.10
25514;BMP180;48128;54.242;10.280;2023-07-28T08:31:47;100011.00;;;19.20
25514;BMP180;48128;54.242;10.280;2023-07-28T08:34:36;100000.00;;;19.30
25514;BMP180;48128;54.242;10.280;2023-07-28T08:37:32;100017.00;;;19.50
25514;BMP180;48128;54.242;10.280;2023-07-28T08:43:44;99983.00;;;19.70
25514;BMP180;48128;54.242;10.280;2023-07-28T08:46:55;100039.00;;;19.80
25514;BMP180;48128;54.242;10.280;2023-07-28T08:49:30;100049.00;;;19.90
25514;BMP180;48128;54.242;10.280;2023-07-28T08:52:28;100028.00;;;20.00
25514;BMP180;48128;54.242;10.280;2023-07-28T08:55:00;100041.00;;;20.10
25514;BMP180;48128;54.242;10.280;2023-07-28T08:57:35;100035.00;;;20.20
25514;BMP180;48128;54.242;10.280;2023-07-28T09:00:15;100039.00;;;20.20
25514;BMP180;48128;54.242;10.280;2023-07-28T09:03:01;100027.00;;;20.10
25514;BMP180;48128;54.242;10.280;2023-07-28T09:08:37;100039.00;;;20.80
25514;BMP180;48128;54.242;10.280;2023-07-28T09:11:12;100038.00;;;21.10
25514;BMP180;48128;54.242;10.280;2023-07-28T09:13:41;100057.00;;;21.10
25514;BMP180;48128;54.242;10.280;2023-07-28T09:16:27;100025.00;;;21.10
25514;BMP180;48128;54.242;10.280;2023-07-28T09:19:08;100064.00;;;21.20
25514;BMP180;48128;54.242;10.280;2023-07-28T09:21:40;100065.00;;;21.20
25514;BMP180;48128;54.242;10.280;2023-07-28T09:24:28;100056.00;;;21.00
25514;BMP180;48128;54.242;10.280;2023-07-28T09:27:00;100064.00;;;20.70
25514;BMP180;48128;54.242;10.280;2023-07-28T09:29:31;100054.00;;;20.60
25514;BMP180;48128;54.242;10.280;2023-07-28T09:32:13;100022.00;;;20.50
25514;BMP180;48128;54.242;10.280;2023-07-28T09:34:46;100036.00;;;20.40
25514;BMP180;48128;54.242;10.280;2023-07-28T09:37:17;100047.00;;;20.20
25514;BMP180;48128;54.242;10.280;2023-07-28T09:39:52;100043.00;;;20.10
25514;BMP180;48128;54.242;10.280;2023-07-28T09:42:22;100036.00;;;19.90
25514;BMP180;48128;54.242;10.280;2023-07-28T09:44:49;100055.00;;;19.90
25514;BMP180;48128;54.242;10.280;2023-07-28T09:47:16;100042.00;;;19.80
25514;BMP180;48128;54.242;10.280;2023-07-28T09:49:46;100034.00;;;19.70
25514;BMP180;48128;54.242;10.280;2023-07-28T09:52:15;100039.00;;;19.70
25514;BMP180;48128;54.242;10.280;2023-07-28T09:54:43;100026.00;;;19.90
25514;BMP180;48128;54.242;10.280;2023-07-28T09:57:12;100057.00;;;20.10
25514;BMP180;48128;54.242;10.280;2023-07-28T09:59:41;100076.00;;;20.40
25514;BMP180;48128;54.242;10.280;2023-07-28T10:02:08;100064.00;;;20.30
25514;BMP180;48128;54.242;10.280;2023-07-28T10:04:39;100038.00;;;20.20
25514;BMP180;48128;54.242;10.280;2023-07-28T10:07:06;100034.00;;;20.00
25514;BMP180;48128;54.242;10.280;2023-07-28T10:09:55;100029.00;;;20.10
25514;BMP180;48128;54.242;10.280;2023-07-28T10:12:25;100045.00;;;20.60
25514;BMP180;48128;54.242;10.280;2023-07-28T10:15:02;100061.00;;;21.10
25514;BMP180;48128;54.242;10.280;2023-07-28T10:17:33;100066.00;;;21.50
25514;BMP180;48128;54.242;10.280;2023-07-28T10:20:05;100103.00;;;21.90
25514;BMP180;48128;54.242;10.280;2023-07-28T10:22:44;100099.00;;;22.20
25514;BMP180;48128;54.242;10.280;2023-07-28T10:25:22;100092.00;;;22.50
25514;BMP180;48128;54.242;10.280;2023-07-28T10:27:50;100103.00;;;22.50
25514;BMP180;48128;54.242;10.280;2023-07-28T10:30:17;100101.00;;;22.50
25514;BMP180;48128;54.242;10.280;2023-07-28T10:32:48;100109.00;;;22.60
25514;BMP180;48128;54.242;10.280;2023-07-28T10:35:23;100096.00;;;22.70
25514;BMP180;48128;54.242;10.280;2023-07-28T10:38:33;100090.00;;;22.90
25514;BMP180;48128;54.242;10.280;2023-07-28T10:44:15;100110.00;;;23.60
25514;BMP180;48128;54.242;10.280;2023-07-28T10:46:41;100092.00;;;23.50
25514;BMP180;48128;54.242;10.280;2023-07-28T10:49:10;100115.00;;;23.20
25514;BMP180;48128;54.242;10.280;2023-07-28T10:51:37;100093.00;;;23.10
25514;BMP180;48128;54.242;10.280;2023-07-28T10:54:04;100116.00;;;22.90
25514;BMP180;48128;54.242;10.280;2023-07-28T10:56:31;100096.00;;;22.40
25514;BMP180;48128;54.242;10.280;2023-07-28T10:58:59;100095.00;;;22.10
25514;BMP180;48128;54.242;10.280;2023-07-28T11:01:32;100087.00;;;21.80
25514;BMP180;48128;54.242;10.280;2023-07-28T11:04:19;100077.00;;;21.60
25514;BMP180;48128;54.242;10.280;2023-07-28T11:06:48;100073.00;;;21.40
25514;BMP180;48128;54.242;10.280;2023-07-28T11:09:21;100060.00;;;21.20
25514;BMP180;48128;54.242;10.280;2023-07-28T11:11:49;100054.00;;;21.10
25514;BMP180;48128;54.242;10.280;2023-07-28T11:14:17;100057.00;;;21.00
25514;BMP180;48128;54.242;10.280;2023-07-28T11:16:45;100049.00;;;21.00
25514;BMP180;48128;54.242;10.280;2023-07-28T11:19:15;100045.00;;;20.90
25514;BMP180;48128;54.242;10.280;2023-07-28T11:21:42;100073.00;;;20.80
25514;BMP180;48128;54.242;10.280;2023-07-28T11:24:10;100070.00;;;20.80
25514;BMP180;48128;54.242;10.280;2023-07-28T11:26:39;100081.00;;;20.80
25514;BMP180;48128;54.242;10.280;2023-07-28T11:29:06;100078.00;;;20.90
25514;BMP180;48128;54.242;10.280;2023-07-28T11:31:34;100056.00;;;21.10
25514;BMP180;48128;54.242;10.280;2023-07-28T11:34:01;100077.00;;;21.10
25514;BMP180;48128;54.242;10.280;2023-07-28T11:36:47;100065.00;;;21.30
25514;BMP180;48128;54.242;10.280;2023-07-28T11:39:50;100092.00;;;22.00
25514;BMP180;48128;54.242;10.280;2023-07-28T12:00:56;100128.00;;;22.20
25514;BMP180;48128;54.242;10.280;2023-07-28T12:03:29;100123.00;;;21.90
25514;BMP180;48128;54.242;10.280;2023-07-28T12:06:04;100118.00;;;21.70
25514;BMP180;48128;54.242;10.280;2023-07-28T12:08:39;100128.00;;;21.50
25514;BMP180;48128;54.242;10.280;2023-07-28T12:11:11;100132.00;;;21.40
25514;BMP180;48128;54.242;10.280;2023-07-28T12:13:52;100132.00;;;21.40
25514;BMP180;48128;54.242;10.280;2023-07-28T12:17:05;100126.00;;;21.50
25514;BMP180;48128;54.242;10.280;2023-07-28T12:30:13;100147.00;;;22.70
25514;BMP180;48128;54.242;10.280;2023-07-28T12:32:44;100170.00;;;23.10
25514;BMP180;48128;54.242;10.280;2023-07-28T12:35:14;100185.00;;;23.20
25514;BMP180;48128;54.242;10.280;2023-07-28T12:42:06;100178.00;;;23.30
25514;BMP180;48128;54.242;10.280;2023-07-28T12:47:37;100192.00;;;23.10
25514;BMP180;48128;54.242;10.280;2023-07-28T12:50:04;100186.00;;;22.80
25514;BMP180;48128;54.242;10.280;2023-07-28T12:52:44;100180.00;;;22.60
25514;BMP180;48128;54.242;10.280;2023-07-28T13:12:38;100168.00;;;21.90
25514;BMP180;48128;54.242;10.280;2023-07-28T13:15:31;100175.00;;;21.80
25514;BMP180;48128;54.242;10.280;2023-07-28T13:17:58;100176.00;;;21.90
25514;BMP180;48128;54.242;10.280;2023-07-28T13:23:56;100181.00;;;21.90
25514;BMP180;48128;54.242;10.280;2023-07-28T13:26:23;100198.00;;;22.00
25514;BMP180;48128;54.242;10.280;2023-07-28T13:28:52;100191.00;;;22.10
25514;BMP180;48128;54.242;10.280;2023-07-28T13:31:19;100201.00;;;22.10
25514;BMP180;48128;54.242;10.280;2023-07-28T13:33:46;100191.00;;;22.20
25514;BMP180;48128;54.242;10.280;2023-07-28T13:36:13;100207.00;;;22.20
25514;BMP180;48128;54.242;10.280;2023-07-28T13:38:40;100212.00;;;22.20
25514;BMP180;48128;54.242;10.280;2023-07-28T13:41:08;100201.00;;;22.30
25514;BMP180;48128;54.242;10.280;2023-07-28T13:43:35;100167.00;;;22.40
25514;BMP180;48128;54.242;10.280;2023-07-28T13:46:04;100167.00;;;22.50
25514;BMP180;48128;54.242;10.280;2023-07-28T13:48:37;100201.00;;;22.60
25514;BMP180;48128;54.242;10.280;2023-07-28T13:51:19;100205.00;;;22.60
25514;BMP180;48128;54.242;10.280;2023-07-28T13:53:52;100229.00;;;22.50
25514;BMP180;48128;54.242;10.280;2023-07-28T13:56:21;100226.00;;;22.50
25514;BMP180;48128;54.242;10.280;2023-07-28T13:58:48;100214.00;;;22.50
25514;BMP180;48128;54.242;10.280;2023-07-28T14:01:18;100208.00;;;22.40
25514;BMP180;48128;54.242;10.280;2023-07-28T14:03:45;100211.00;;;22.40
25514;BMP180;48128;54.242;10.280;2023-07-28T14:06:12;100213.00;;;22.30
25514;BMP180;48128;54.242;10.280;2023-07-28T14:08:39;100201.00;;;22.20
25514;BMP180;48128;54.242;10.280;2023-07-28T14:11:06;100218.00;;;22.10
25514;BMP180;48128;54.242;10.280;2023-07-28T14:13:33;100208.00;;;22.20
25514;BMP180;48128;54.242;10.280;2023-07-28T14:16:00;100234.00;;;22.10
25514;BMP180;48128;54.242;10.280;2023-07-28T14:18:27;100214.00;;;22.10
25514;BMP180;48128;54.242;10.280;2023-07-28T14:20:54;100213.00;;;22.10
25514;BMP180;48128;54.242;10.280;2023-07-28T14:23:26;100189.00;;;22.10
25514;BMP180;48128;54.242;10.280;2023-07-28T14:25:53;100224.00;;;22.00
25514;BMP180;48128;54.242;10.280;2023-07-28T14:28:20;100224.00;;;21.90
25514;BMP180;48128;54.242;10.280;2023-07-28T14:30:49;100225.00;;;21.90
25514;BMP180;48128;54.242;10.280;2023-07-28T14:33:18;100229.00;;;21.90
25514;BMP180;48128;54.242;10.280;2023-07-28T14:35:46;100222.00;;;21.90
25514;BMP180;48128;54.242;10.280;2023-07-28T14:38:13;100246.00;;;21.90
25514;BMP180;48128;54.242;10.280;2023-07-28T14:40:41;100214.00;;;21.90
25514;BMP180;48128;54.242;10.280;2023-07-28T14:43:07;100238.00;;;22.00
25514;BMP180;48128;54.242;10.280;2023-07-28T14:45:34;100235.00;;;22.00
25514;BMP180;48128;54.242;10.280;2023-07-28T14:48:11;100227.00;;;22.20
25514;BMP180;48128;54.242;10.280;2023-07-28T14:50:38;100248.00;;;22.30
25514;BMP180;48128;54.242;10.280;2023-07-28T14:53:28;100230.00;;;22.30
25514;BMP180;48128;54.242;10.280;2023-07-28T14:55:55;100203.00;;;22.40
25514;BMP180;48128;54.242;10.280;2023-07-28T14:58:26;100215.00;;;22.50
25514;BMP180;48128;54.242;10.280;2023-07-28T15:00:53;100208.00;;;22.50
25514;BMP180;48128;54.242;10.280;2023-07-28T15:03:20;100237.00;;;22.50
25514;BMP180;48128;54.242;10.280;2023-07-28T15:05:47;100256.00;;;22.60
25514;BMP180;48128;54.242;10.280;2023-07-28T15:08:14;100242.00;;;22.60
25514;BMP180;48128;54.242;10.280;2023-07-28T15:10:41;100255.00;;;22.60
25514;BMP180;48128;54.242;10.280;2023-07-28T15:13:08;100248.00;;;22.50
25514;BMP180;48128;54.242;10.280;2023-07-28T15:15:35;100247.00;;;22.40
25514;BMP180;48128;54.242;10.280;2023-07-28T15:18:02;100225.00;;;22.40
25514;BMP180;48128;54.242;10.280;2023-07-28T15:20:29;100233.00;;;22.40
25514;BMP180;48128;54.242;10.280;2023-07-28T15:22:56;100233.00;;;22.30
25514;BMP180;48128;54.242;10.280;2023-07-28T15:25:23;100212.00;;;22.20
25514;BMP180;48128;54.242;10.280;2023-07-28T15:27:49;100221.00;;;22.10
25514;BMP180;48128;54.242;10.280;2023-07-28T15:30:16;100222.00;;;22.10
25514;BMP180;48128;54.242;10.280;2023-07-28T15:32:43;100203.00;;;22.10
25514;BMP180;48128;54.242;10.280;2023-07-28T15:35:10;100211.00;;;22.10
25514;BMP180;48128;54.242;10.280;2023-07-28T15:37:37;100221.00;;;22.10
25514;BMP180;48128;54.242;10.280;2023-07-28T15:40:04;100230.00;;;22.20
25514;BMP180;48128;54.242;10.280;2023-07-28T15:42:31;100239.00;;;22.30
25514;BMP180;48128;54.242;10.280;2023-07-28T15:45:02;100239.00;;;22.40
25514;BMP180;48128;54.242;10.280;2023-07-28T15:47:31;100226.00;;;22.50
25514;BMP180;48128;54.242;10.280;2023-07-28T15:50:00;100236.00;;;22.50
25514;BMP180;48128;54.242;10.280;2023-07-28T16:22:09;100222.00;;;22.20
25514;BMP180;48128;54.242;10.280;2023-07-28T16:24:37;100214.00;;;22.20
25514;BMP180;48128;54.242;10.280;2023-07-28T16:27:04;100205.00;;;22.30
25514;BMP180;48128;54.242;10.280;2023-07-28T16:29:31;100215.00;;;22.30
25514;BMP180;48128;54.242;10.280;2023-07-28T16:31:58;100230.00;;;22.30
25514;BMP180;48128;54.242;10.280;2023-07-28T16:34:26;100215.00;;;22.30
25514;BMP180;48128;54.242;10.280;2023-07-28T16:36:53;100226.00;;;22.20
25514;BMP180;48128;54.242;10.280;2023-07-28T16:39:20;100218.00;;;22.10
25514;BMP180;48128;54.242;10.280;2023-07-28T16:41:47;100213.00;;;22.10
25514;BMP180;48128;54.242;10.280;2023-07-28T16:44:15;100225.00;;;22.00
25514;BMP180;48128;54.242;10.280;2023-07-28T16:46:42;100215.00;;;21.90
25514;BMP180;48128;54.242;10.280;2023-07-28T16:49:09;100216.00;;;21.90
25514;BMP180;48128;54.242;10.280;2023-07-28T16:51:42;100206.00;;;21.90
25514;BMP180;48128;54.242;10.280;2023-07-28T16:54:10;100198.00;;;22.00
25514;BMP180;48128;54.242;10.280;2023-07-28T16:56:37;100205.00;;;22.00
25514;BMP180;48128;54.242;10.280;2023-07-28T16:59:06;100213.00;;;22.10
25514;BMP180;48128;54.242;10.280;2023-07-28T17:01:33;100216.00;;;22.10
25514;BMP180;48128;54.242;10.280;2023-07-28T17:04:00;100229.00;;;22.10
25514;BMP180;48128;54.242;10.280;2023-07-28T17:06:27;100227.00;;;22.10
25514;BMP180;48128;54.242;10.280;2023-07-28T17:08:54;100223.00;;;22.10
25514;BMP180;48128;54.242;10.280;2023-07-28T17:11:21;100218.00;;;22.10
25514;BMP180;48128;54.242;10.280;2023-07-28T17:13:48;100222.00;;;22.00
25514;BMP180;48128;54.242;10.280;2023-07-28T17:16:14;100224.00;;;21.90
25514;BMP180;48128;54.242;10.280;2023-07-28T17:18:41;100223.00;;;21.90
25514;BMP180;48128;54.242;10.280;2023-07-28T17:21:12;100228.00;;;21.70
25514;BMP180;48128;54.242;10.280;2023-07-28T17:23:38;100220.00;;;21.70
25514;BMP180;48128;54.242;10.280;2023-07-28T17:26:05;100219.00;;;21.60
25514;BMP180;48128;54.242;10.280;2023-07-28T17:28:32;100226.00;;;21.50
25514;BMP180;48128;54.242;10.280;2023-07-28T17:30:59;100221.00;;;21.40
25514;BMP180;48128;54.242;10.280;2023-07-28T17:33:26;100217.00;;;21.30
25514;BMP180;48128;54.242;10.280;2023-07-28T17:35:53;100225.00;;;21.30
25514;BMP180;48128;54.242;10.280;2023-07-28T17:38:20;100214.00;;;21.20
25514;BMP180;48128;54.242;10.280;2023-07-28T17:40:47;100212.00;;;21.10
25514;BMP180;48128;54.242;10.280;2023-07-28T17:43:15;100192.00;;;21.00
25514;BMP180;48128;54.242;10.280;2023-07-28T17:45:42;100170.00;;;20.90
25514;BMP180;48128;54.242;10.280;2023-07-28T17:48:09;100185.00;;;20.70
25514;BMP180;48128;54.242;10.280;2023-07-28T17:50:36;100191.00;;;20.60
25514;BMP180;48128;54.242;10.280;2023-07-28T17:53:02;100182.00;;;20.50
25514;BMP180;48128;54.242;10.280;2023-07-28T17:55:29;100182.00;;;20.40
25514;BMP180;48128;54.242;10.280;2023-07-28T17:57:56;100188.00;;;20.30
25514;BMP180;48128;54.242;10.280;2023-07-28T18:00:23;100190.00;;;20.30
25514;BMP180;48128;54.242;10.280;2023-07-28T18:02:50;100192.00;;;20.20
25514;BMP180;48128;54.242;10.280;2023-07-28T18:05:17;100198.00;;;20.10
25514;BMP180;48128;54.242;10.280;2023-07-28T18:07:44;100201.00;;;20.10
25514;BMP180;48128;54.242;10.280;2023-07-28T18:10:11;100196.00;;;20.00
25514;BMP180;48128;54.242;10.280;2023-07-28T18:12:38;100206.00;;;19.90
25514;BMP180;48128;54.242;10.280;2023-07-28T18:15:05;100203.00;;;19.90
25514;BMP180;48128;54.242;10.280;2023-07-28T18:17:33;100209.00;;;19.80
25514;BMP180;48128;54.242;10.280;2023-07-28T18:20:00;100205.00;;;19.80
25514;BMP180;48128;54.242;10.280;2023-07-28T18:22:27;100211.00;;;19.80
25514;BMP180;48128;54.242;10.280;2023-07-28T18:24:54;100200.00;;;19.70
25514;BMP180;48128;54.242;10.280;2023-07-28T18:27:20;100208.00;;;19.70
25514;BMP180;48128;54.242;10.280;2023-07-28T18:29:47;100203.00;;;19.60
25514;BMP180;48128;54.242;10.280;2023-07-28T18:32:14;100205.00;;;19.60
25514;BMP180;48128;54.242;10.280;2023-07-28T18:34:41;100215.00;;;19.50
25514;BMP180;48128;54.242;10.280;2023-07-28T18:37:08;100233.00;;;19.50
25514;BMP180;48128;54.242;10.280;2023-07-28T18:39:35;100234.00;;;19.40
25514;BMP180;48128;54.242;10.280;2023-07-28T18:42:03;100226.00;;;19.30
25514;BMP180;48128;54.242;10.280;2023-07-28T18:44:33;100226.00;;;19.30
25514;BMP180;48128;54.242;10.280;2023-07-28T18:46:59;100227.00;;;19.30
25514;BMP180;48128;54.242;10.280;2023-07-28T18:49:26;100215.00;;;19.30
25514;BMP180;48128;54.242;10.280;2023-07-28T18:51:53;100243.00;;;19.30
25514;BMP180;48128;54.242;10.280;2023-07-28T18:54:20;100243.00;;;19.20
25514;BMP180;48128;54.242;10.280;2023-07-28T18:56:47;100252.00;;;19.20
25514;BMP180;48128;54.242;10.280;2023-07-28T18:59:14;100235.00;;;19.10
25514;BMP180;48128;54.242;10.280;2023-07-28T19:01:41;100238.00;;;19.10
25514;BMP180;48128;54.242;10.280;2023-07-28T19:04:10;100241.00;;;19.00
25514;BMP180;48128;54.242;10.280;2023-07-28T19:06:37;100237.00;;;19.00
25514;BMP180;48128;54.242;10.280;2023-07-28T19:09:04;100241.00;;;19.00
25514;BMP180;48128;54.242;10.280;2023-07-28T19:11:31;100229.00;;;19.00
25514;BMP180;48128;54.242;10.280;2023-07-28T19:13:57;100247.00;;;18.90
25514;BMP180;48128;54.242;10.280;2023-07-28T19:16:24;100246.00;;;18.90
25514;BMP180;48128;54.242;10.280;2023-07-28T19:18:51;100241.00;;;18.90
25514;BMP180;48128;54.242;10.280;2023-07-28T19:21:19;100240.00;;;18.90
25514;BMP180;48128;54.242;10.280;2023-07-28T19:23:47;100243.00;;;18.80
25514;BMP180;48128;54.242;10.280;2023-07-28T19:26:13;100249.00;;;18.70
25514;BMP180;48128;54.242;10.280;2023-07-28T19:28:41;100263.00;;;18.60
25514;BMP180;48128;54.242;10.280;2023-07-28T19:31:08;100264.00;;;18.50